Time;durP1;ratioP1;P1;durP2;ratioP2;P2;SDS_P1;SDS_P2;PMS_P1;PMS_P2;Temp;Humidity;BMP_temperature;BMP_pressure;BME280_temperature;BME280_humidity;BME280_pressure;Samples;Min_cycle;Max_cycle;Signal;HPM_P1;HPM_P2
2021/11/09 00:01:22;;;;;;;17.42;9.15;;;;;;;4.95;74.48;100427.47;4956033;29;19926;-63
2021/11/09 00:04:01;;;;;;;16.08;8.25;;;;;;;4.84;75.20;100433.84;4955526;28;20053;-63
2021/11/09 00:06:38;;;;;;;18.73;9.30;;;;;;;4.82;75.35;100438.00;4955901;29;20047;-63
2021/11/09 00:09:14;;;;;;;19.75;8.63;;;;;;;4.64;75.02;100442.41;4955845;29;20126;-63
2021/11/09 00:11:47;;;;;;;21.17;9.52;;;;;;;4.67;75.30;100447.56;4955450;29;20050;-64
2021/11/09 00:14:17;;;;;;;18.02;9.65;;;;;;;4.68;75.45;100449.28;4955441;29;20051;-63
2021/11/09 00:16:50;;;;;;;22.17;9.55;;;;;;;4.65;75.38;100444.13;4954678;29;20066;-63
2021/11/09 00:19:22;;;;;;;17.52;9.50;;;;;;;4.63;75.58;100441.53;4955784;29;20051;-63
2021/11/09 00:21:54;;;;;;;20.23;10.82;;;;;;;4.67;75.59;100447.56;4955758;29;20081;-63
2021/11/09 00:24:27;;;;;;;18.73;9.80;;;;;;;4.70;75.33;100448.53;4955702;29;20490;-63
2021/11/09 00:26:59;;;;;;;20.92;10.65;;;;;;;4.73;75.29;100440.19;4955388;29;20051;-62
2021/11/09 00:29:34;;;;;;;19.05;10.85;;;;;;;4.74;75.01;100445.31;4955353;29;20107;-63
2021/11/09 00:32:08;;;;;;;21.50;11.55;;;;;;;4.72;75.31;100443.53;4955358;29;20081;-63
2021/11/09 00:34:41;;;;;;;19.10;9.70;;;;;;;4.63;74.98;100446.59;4955255;29;20061;-63
2021/11/09 00:37:11;;;;;;;21.50;10.90;;;;;;;4.68;75.56;100440.03;4955315;29;20061;-63
2021/11/09 00:39:44;;;;;;;18.13;10.40;;;;;;;4.66;75.74;100440.78;4955561;29;20505;-63
2021/11/09 00:42:15;;;;;;;18.80;9.55;;;;;;;4.68;75.71;100440.03;4955554;29;20070;-63
2021/11/09 00:44:49;;;;;;;25.65;10.68;;;;;;;4.70;75.69;100438.41;4955524;29;20058;-64
2021/11/09 00:47:21;;;;;;;18.95;10.32;;;;;;;4.68;75.82;100434.09;4955264;29;20055;-65
2021/11/09 00:49:50;;;;;;;22.25;10.63;;;;;;;4.63;75.82;100436.47;4955237;29;20489;-64
2021/11/09 00:52:20;;;;;;;20.45;10.80;;;;;;;4.57;75.81;100432.88;4955174;29;20046;-64
2021/11/09 00:54:50;;;;;;;21.13;9.80;;;;;;;4.60;76.07;100438.06;4954996;29;20135;-63
2021/11/09 00:57:22;;;;;;;;;;;;;;;4.67;75.75;100432.41;4955829;28;20059;-63
2021/11/09 00:59:55;;;;;;;22.67;10.20;;;;;;;4.61;75.00;100443.16;4955504;29;20376;-63
2021/11/09 01:02:28;;;;;;;20.90;10.30;;;;;;;4.57;74.91;100433.75;4955349;29;20051;-63
2021/11/09 01:05:02;;;;;;;20.27;10.32;;;;;;;4.54;74.95;100440.34;4955097;28;20106;-63
2021/11/09 01:07:34;;;;;;;16.77;8.88;;;;;;;4.50;75.12;100438.53;4958690;29;20051;-63
2021/11/09 01:10:08;;;;;;;19.35;9.57;;;;;;;4.45;75.67;100451.00;4958678;29;20051;-63
2021/11/09 01:12:40;;;;;;;21.30;9.27;;;;;;;4.34;75.02;100456.47;4958644;29;20058;-63
2021/11/09 01:15:15;;;;;;;17.60;9.90;;;;;;;4.30;76.13;100447.06;4957946;29;20059;-65
2021/11/09 01:17:48;;;;;;;21.23;8.98;;;;;;;4.30;75.96;100455.50;4958846;29;20398;-64
2021/11/09 01:20:23;;;;;;;20.00;10.05;;;;;;;4.36;75.84;100460.78;4958494;29;20126;-65
2021/11/09 01:22:56;;;;;;;17.52;8.63;;;;;;;4.30;75.76;100459.69;4958476;29;20055;-65
2021/11/09 01:25:30;;;;;;;17.10;8.80;;;;;;;4.34;75.87;100461.53;4958369;29;20102;-63
2021/11/09 01:28:00;;;;;;;18.63;8.20;;;;;;;4.33;76.50;100467.38;4958366;29;20047;-63
2021/11/09 01:30:34;;;;;;;16.58;8.57;;;;;;;4.33;76.18;100474.97;4958375;29;20054;-63
2021/11/09 01:33:07;;;;;;;18.60;8.48;;;;;;;4.48;76.99;100485.63;4941366;29;20062;-63
2021/11/09 01:35:38;;;;;;;17.77;8.20;;;;;;;4.57;76.04;100468.28;4958514;29;20035;-64
2021/11/09 01:38:11;;;;;;;12.75;7.10;;;;;;;4.59;75.97;100469.19;4958175;29;20059;-64
2021/11/09 01:40:44;;;;;;;16.60;8.48;;;;;;;4.45;75.65;100465.31;4958109;29;20047;-65
2021/11/09 01:43:17;;;;;;;15.45;7.85;;;;;;;4.42;75.73;100475.28;4958114;29;20527;-64
2021/11/09 01:45:52;;;;;;;16.50;8.13;;;;;;;4.41;76.51;100476.13;4957995;29;20133;-64
2021/11/09 01:48:25;;;;;;;17.50;7.60;;;;;;;4.39;76.48;100475.22;4940998;29;20051;-64
2021/11/09 01:51:00;;;;;;;15.93;7.90;;;;;;;4.45;76.42;100477.94;4957940;29;20054;-64
2021/11/09 01:53:34;;;;;;;18.30;7.90;;;;;;;4.53;75.95;100490.06;4957845;29;20055;-65
2021/11/09 01:56:11;;;;;;;18.83;8.45;;;;;;;4.51;75.76;100485.75;4958212;29;20063;-64
2021/11/09 01:58:44;;;;;;;17.00;7.57;;;;;;;4.50;76.10;100484.03;4957825;29;20051;-64
2021/11/09 02:01:18;;;;;;;15.98;7.63;;;;;;;4.52;76.49;100490.00;4957808;29;20043;-65
2021/11/09 02:03:52;;;;;;;16.25;8.23;;;;;;;4.52;76.81;100487.47;4957698;29;20130;-64
2021/11/09 02:06:25;;;;;;;12.30;6.90;;;;;;;4.52;76.45;100474.81;4957912;29;20059;-64
2021/11/09 02:09:02;;;;;;;14.48;8.27;;;;;;;4.46;76.85;100477.16;4957628;29;20554;-64
2021/11/09 02:11:33;;;;;;;19.55;7.85;;;;;;;4.39;76.64;100475.22;4957538;29;20043;-65
2021/11/09 02:14:07;;;;;;;14.38;7.85;;;;;;;4.44;76.40;100484.66;4957526;29;20055;-64
2021/11/09 02:16:38;;;;;;;15.38;8.18;;;;;;;4.40;76.69;100477.78;4957082;28;20060;-64
2021/11/09 02:19:11;;;;;;;15.13;7.63;;;;;;;4.42;76.73;100483.75;4957154;29;20051;-64
2021/11/09 02:21:42;;;;;;;16.52;8.38;;;;;;;4.45;76.44;100486.38;4957388;29;20061;-65
2021/11/09 02:24:15;;;;;;;13.57;7.13;;;;;;;4.44;76.27;100486.34;4957329;29;20043;-64
2021/11/09 02:26:45;;;;;;;14.43;7.28;;;;;;;4.37;76.01;100477.66;4957604;29;20138;-64
2021/11/09 02:29:17;;;;;;;14.27;7.75;;;;;;;4.34;76.96;100481.75;4957570;29;20172;-65
2021/11/09 02:31:47;;;;;;;15.07;6.97;;;;;;;4.40;77.11;100489.53;4957211;29;20054;-65
2021/11/09 02:34:16;;;;;;;17.45;7.00;;;;;;;4.44;76.92;100488.88;4957191;29;20385;-65
2021/11/09 02:36:47;;;;;;;16.65;7.68;;;;;;;4.50;76.48;100504.25;4957078;29;20147;-63
2021/11/09 02:39:20;;;;;;;12.23;6.65;;;;;;;4.40;76.74;100497.13;4957125;29;20055;-63
2021/11/09 02:41:52;;;;;;;14.98;7.22;;;;;;;4.39;76.70;100510.59;4957064;29;20047;-65
2021/11/09 02:44:27;;;;;;;12.10;6.85;;;;;;;4.32;76.55;100508.63;4956982;29;20143;-65
2021/11/09 02:47:03;;;;;;;19.08;7.13;;;;;;;4.39;76.03;100520.69;4956889;29;20054;-63
2021/11/09 02:49:49;;;;;;;12.45;6.65;;;;;;;4.41;75.92;100524.13;4956912;29;20101;-63
2021/11/09 02:52:26;;;;;;;13.65;6.63;;;;;;;4.17;75.49;100528.25;4956795;29;20170;-63
2021/11/09 02:55:02;;;;;;;15.98;7.50;;;;;;;4.16;75.87;100531.56;4956756;29;20070;-63
2021/11/09 02:57:41;;;;;;;15.90;7.47;;;;;;;4.12;76.18;100534.78;4956972;29;20073;-62
2021/11/09 03:00:21;;;;;;;14.13;7.63;;;;;;;4.12;76.96;100524.69;4956951;29;20445;-63
2021/11/09 03:02:57;;;;;;;16.15;6.97;;;;;;;4.17;77.15;100529.13;4956960;29;20138;-63
2021/11/09 03:05:32;;;;;;;16.65;7.10;;;;;;;4.30;77.21;100540.53;4956908;29;20039;-63
2021/11/09 03:08:21;;;;;;;14.38;7.15;;;;;;;4.26;76.59;100538.72;4956776;29;20047;-63
2021/11/09 03:10:54;;;;;;;;;;;;;;;4.14;76.48;100534.06;4956907;29;20047;-63
2021/11/09 03:13:27;;;;;;;14.93;6.38;;;;;;;4.22;76.32;100542.81;4956453;29;20416;-63
2021/11/09 03:16:04;;;;;;;14.68;7.68;;;;;;;4.14;76.17;100543.28;4955484;28;20142;-63
2021/11/09 03:18:43;;;;;;;14.15;6.88;;;;;;;4.00;76.18;100545.28;4956620;29;20154;-63
2021/11/09 03:40:26;;;;;;;13.00;7.65;;;;;;;3.82;76.69;100573.19;4955982;29;20142;-64
2021/11/09 03:45:39;;;;;;;13.35;6.88;;;;;;;3.87;77.31;100576.75;4955903;29;20055;-65
2021/11/09 03:48:14;;;;;;;16.27;7.20;;;;;;;3.85;76.89;100585.94;4956117;29;20119;-63
2021/11/09 03:50:49;;;;;;;15.43;6.80;;;;;;;3.89;77.26;100582.72;4955777;29;20058;-65
2021/11/09 03:53:23;;;;;;;14.38;6.95;;;;;;;3.80;77.28;100582.38;4938674;29;20405;-64
2021/11/09 03:56:13;;;;;;;12.43;6.75;;;;;;;3.82;76.60;100584.94;4955970;29;20408;-65
2021/11/09 03:58:48;;;;;;;14.85;6.60;;;;;;;3.77;76.94;100589.81;4938795;29;20047;-64
2021/11/09 04:01:23;;;;;;;13.50;7.30;;;;;;;3.76;77.33;100589.75;4955691;29;20059;-65
2021/11/09 04:04:09;;;;;;;15.32;6.95;;;;;;;3.83;76.56;100594.25;4955614;29;20059;-63
2021/11/09 04:06:42;;;;;;;17.85;8.07;;;;;;;3.81;76.58;100594.19;4955906;29;20126;-63
2021/11/09 04:09:19;;;;;;;15.63;7.28;;;;;;;3.89;77.48;100587.78;4955563;29;20079;-64
2021/11/09 04:12:05;;;;;;;15.43;6.82;;;;;;;3.96;77.41;100589.75;4955567;29;20563;-64
2021/11/09 04:14:40;;;;;;;16.48;7.43;;;;;;;4.00;77.04;100591.63;4955432;29;20083;-64
2021/11/09 04:17:13;;;;;;;15.02;7.05;;;;;;;3.98;76.64;100587.31;4942091;29;20064;-64
2021/11/09 04:19:50;;;;;;;14.43;6.70;;;;;;;3.97;76.79;100591.50;4936251;29;20048;-63
2021/11/09 04:25:22;;;;;;;13.32;7.05;;;;;;;3.94;77.06;100595.53;4936250;29;20047;-63
2021/11/09 04:28:05;;;;;;;16.20;7.82;;;;;;;3.86;76.51;100597.75;4936277;29;20580;-63
2021/11/09 04:30:54;;;;;;;15.18;7.70;;;;;;;3.89;77.08;100597.88;4937125;29;20529;-63
2021/11/09 05:08:54;;;;;;;13.57;6.43;;;;;;;3.47;77.04;100631.44;4939558;29;20048;-62
2021/11/09 05:11:26;;;;;;;14.52;6.68;;;;;;;3.50;77.27;100638.28;4939464;29;20060;-62
2021/11/09 05:13:58;;;;;;;13.27;6.78;;;;;;;3.54;76.55;100640.13;4939769;29;20054;-62
2021/11/09 05:16:32;;;;;;;18.40;8.98;;;;;;;3.66;76.80;100649.09;4939137;29;20068;-62
2021/11/09 05:19:01;;;;;;;52.42;21.45;;;;;;;3.71;77.14;100652.69;4939348;29;20126;-62
2021/11/09 05:21:34;;;;;;;21.85;9.52;;;;;;;3.66;76.35;100654.16;4939255;29;20051;-62
2021/11/09 05:24:07;;;;;;;18.75;8.52;;;;;;;3.46;76.37;100649.91;4939278;29;20043;-62
2021/11/09 05:26:41;;;;;;;16.98;7.97;;;;;;;3.38;76.60;100656.28;4939513;29;20118;-62
2021/11/09 05:29:14;;;;;;;14.13;7.03;;;;;;;3.46;76.60;100657.47;4939226;29;20056;-62
2021/11/09 05:31:45;;;;;;;15.27;7.10;;;;;;;3.63;76.61;100666.63;4939404;29;20062;-62
2021/11/09 05:34:17;;;;;;;13.10;6.30;;;;;;;3.62;76.86;100667.44;4939126;29;20058;-62
2021/11/09 05:36:50;;;;;;;14.93;7.20;;;;;;;3.58;76.59;100677.31;4939137;29;20050;-62
2021/11/09 05:39:30;;;;;;;15.55;6.63;;;;;;;3.52;76.46;100675.41;4938993;29;20056;-62
2021/11/09 05:42:01;;;;;;;14.77;6.40;;;;;;;3.48;76.42;100678.56;4939229;29;20055;-62
2021/11/09 05:44:33;;;;;;;16.63;7.25;;;;;;;3.51;77.07;100683.75;4939201;29;20063;-62
2021/11/09 05:47:04;;;;;;;12.57;6.43;;;;;;;3.58;77.01;100688.28;4938851;29;20048;-62
2021/11/09 05:49:37;;;;;;;13.63;6.90;;;;;;;3.66;76.64;100693.66;4938794;29;20052;-63
2021/11/09 05:52:07;;;;;;;16.98;7.38;;;;;;;3.63;76.58;100691.88;4937709;29;20060;-64
2021/11/09 05:54:40;;;;;;;14.82;7.47;;;;;;;3.60;76.07;100698.47;4939001;29;20458;-64
2021/11/09 05:57:09;;;;;;;13.68;6.88;;;;;;;3.59;76.46;100707.69;4938579;29;20096;-64
2021/11/09 05:59:43;;;;;;;13.25;6.90;;;;;;;3.47;75.73;100717.25;4938796;29;20085;-64
2021/11/09 06:02:16;;;;;;;18.95;9.43;;;;;;;3.38;76.60;100721.88;4938579;29;20491;-63
2021/11/09 06:04:52;;;;;;;23.08;11.35;;;;;;;3.34;75.88;100733.50;4938456;29;20048;-63
2021/11/09 06:07:24;;;;;;;29.15;11.45;;;;;;;3.23;76.38;100736.34;4938489;29;20058;-64
2021/11/09 06:09:57;;;;;;;24.95;10.95;;;;;;;3.15;76.17;100738.50;4938681;29;20047;-63
2021/11/09 06:12:29;;;;;;;21.90;10.50;;;;;;;3.16;76.12;100737.72;4938452;29;20111;-63
2021/11/09 06:14:58;;;;;;;22.40;9.85;;;;;;;3.18;76.66;100738.66;4937539;29;20130;-65
2021/11/09 06:17:32;;;;;;;20.67;9.93;;;;;;;3.13;76.86;100749.31;4921264;29;20402;-62
2021/11/09 06:20:06;;;;;;;16.02;8.52;;;;;;;3.13;77.14;100754.34;4938238;29;20055;-64
2021/11/09 06:22:37;;;;;;;18.90;8.75;;;;;;;3.15;77.49;100757.81;4938672;29;20044;-62
2021/11/09 06:25:10;;;;;;;21.20;9.68;;;;;;;3.18;77.05;100763.00;4938195;29;20048;-64
2021/11/09 06:27:43;;;;;;;17.67;8.93;;;;;;;3.37;77.65;100760.50;4938039;29;20054;-63
2021/11/09 06:30:15;;;;;;;22.67;9.63;;;;;;;3.66;77.11;100765.19;4938017;29;20047;-64
2021/11/09 06:32:53;;;;;;;20.80;8.93;;;;;;;3.93;77.08;100771.47;4937855;29;20401;-63
2021/11/09 06:35:22;;;;;;;16.30;8.20;;;;;;;4.17;77.65;100780.88;4937743;29;20055;-64
2021/11/09 06:37:55;;;;;;;12.95;6.78;;;;;;;4.33;76.65;100786.63;4937890;29;20047;-64
2021/11/09 06:40:28;;;;;;;18.45;8.93;;;;;;;4.50;76.57;100797.44;4938309;29;20063;-63
2021/11/09 06:43:00;;;;;;;19.33;9.30;;;;;;;4.58;76.55;100801.16;4938184;29;20055;-63
2021/11/09 06:45:30;;;;;;;17.30;8.05;;;;;;;4.69;76.27;100804.97;4937774;29;20520;-64
2021/11/09 06:48:02;;;;;;;21.02;8.38;;;;;;;4.84;76.04;100805.59;4937709;29;20110;-62
2021/11/09 06:50:35;;;;;;;13.52;7.40;;;;;;;4.83;75.45;100793.75;4937642;29;20052;-63
2021/11/09 06:53:05;;;;;;;19.92;8.13;;;;;;;5.02;75.35;100811.38;4937540;29;20142;-63
2021/11/09 06:55:37;;;;;;;14.52;7.90;;;;;;;5.15;74.84;100826.25;4937775;29;20061;-62
2021/11/09 06:58:10;;;;;;;15.40;7.20;;;;;;;5.31;75.01;100825.16;4920790;29;20115;-64
2021/11/09 07:00:46;;;;;;;15.77;7.70;;;;;;;5.21;74.96;100844.19;4937509;29;20054;-64
2021/11/09 07:03:21;;;;;;;29.15;18.65;;;;;;;5.30;74.80;100849.59;4937472;29;20139;-64
2021/11/09 07:05:50;;;;;;;19.20;6.70;;;;;;;5.38;74.91;100849.91;4937362;29;20050;-63
2021/11/09 07:08:24;;;;;;;13.80;7.40;;;;;;;5.48;74.74;100854.50;4937690;29;20051;-64
2021/11/09 07:10:54;;;;;;;11.95;6.57;;;;;;;5.60;74.04;100849.06;4937300;29;20051;-63
2021/11/09 07:13:27;;;;;;;10.27;6.00;;;;;;;5.68;74.28;100847.69;4937321;29;20083;-64
2021/11/09 07:15:59;;;;;;;12.35;5.40;;;;;;;5.61;73.90;100846.59;4936229;29;20450;-63
2021/11/09 07:18:33;;;;;;;10.70;6.50;;;;;;;5.70;74.11;100848.59;4937481;29;20165;-63
2021/11/09 07:21:06;;;;;;;12.57;5.45;;;;;;;5.75;73.78;100854.69;4937007;29;20048;-64
2021/11/09 07:23:35;;;;;;;12.80;5.78;;;;;;;5.91;74.13;100857.00;4936884;29;20058;-63
2021/11/09 07:26:08;;;;;;;12.27;6.22;;;;;;;6.01;73.76;100864.16;4937010;29;20078;-62
2021/11/09 07:28:41;;;;;;;13.48;5.90;;;;;;;6.12;73.68;100867.91;4937000;29;20134;-64
2021/11/09 07:31:15;;;;;;;11.90;5.68;;;;;;;6.22;73.33;100875.06;4937285;29;20141;-64
2021/11/09 07:33:51;;;;;;;8.43;5.13;;;;;;;6.33;73.22;100868.72;4936902;29;20111;-63
2021/11/09 07:36:21;;;;;;;10.00;5.60;;;;;;;6.16;73.09;100853.69;4936696;29;20044;-63
2021/11/09 07:38:56;;;;;;;11.20;5.55;;;;;;;6.35;73.72;100882.31;4937070;29;20068;-63
2021/11/09 07:41:29;;;;;;;10.93;5.47;;;;;;;6.51;73.37;100879.47;4937004;29;20067;-64
2021/11/09 07:43:58;;;;;;;13.82;5.82;;;;;;;6.54;73.05;100889.75;4936706;29;20051;-63
2021/11/09 07:46:31;;;;;;;;;;;;;;;6.68;73.24;100883.47;4937052;29;20050;-64
2021/11/09 07:49:02;;;;;;;12.48;6.03;;;;;;;6.66;72.36;100892.69;4936669;29;19923;-63
2021/11/09 07:51:35;;;;;;;11.95;7.38;;;;;;;6.64;72.99;100886.72;4936653;29;20142;-63
2021/11/09 07:54:08;;;;;;;12.32;7.53;;;;;;;6.80;72.62;100892.28;4936529;29;20130;-63
2021/11/09 07:56:39;;;;;;;11.90;7.63;;;;;;;6.89;72.74;100897.66;4936745;29;20501;-63
2021/11/09 07:59:25;;;;;;;13.20;8.07;;;;;;;6.84;72.27;100905.13;4936856;29;20054;-63
2021/11/09 08:02:03;;;;;;;14.70;8.02;;;;;;;6.82;71.81;100905.88;4936437;29;20043;-63
2021/11/09 08:04:44;;;;;;;18.17;9.23;;;;;;;6.84;71.75;100909.38;4936467;29;20051;-63
2021/11/09 08:07:20;;;;;;;14.57;7.95;;;;;;;6.84;71.44;100914.44;4936717;29;20540;-64
2021/11/09 08:09:53;;;;;;;14.85;7.72;;;;;;;6.88;71.61;100901.03;4936533;29;20094;-63
2021/11/09 08:12:25;;;;;;;16.70;8.23;;;;;;;7.12;71.38;100904.38;4936294;29;20052;-63
2021/11/09 08:14:55;;;;;;;13.07;7.50;;;;;;;7.40;70.67;100910.38;4935791;29;20102;-64
2021/11/09 08:17:27;;;;;;;12.75;7.13;;;;;;;7.52;71.00;100914.13;4936073;29;20056;-64
2021/11/09 08:20:01;;;;;;;13.43;7.55;;;;;;;7.48;70.09;100918.25;4936265;29;20047;-63
2021/11/09 08:22:34;;;;;;;15.63;7.70;;;;;;;7.61;70.41;100912.72;4936279;29;20047;-63
2021/11/09 08:25:09;;;;;;;13.65;7.20;;;;;;;7.85;70.49;100910.94;4936198;29;20131;-64
2021/11/09 08:27:39;;;;;;;11.70;6.85;;;;;;;7.99;69.76;100924.91;4936478;29;20062;-64
2021/11/09 08:30:12;;;;;;;11.73;7.45;;;;;;;7.90;69.86;100922.09;4936189;29;20063;-64
2021/11/09 08:32:45;;;;;;;13.30;6.72;;;;;;;8.10;70.07;100928.66;4936187;29;20116;-64
2021/11/09 08:35:22;;;;;;;11.63;6.78;;;;;;;8.33;69.89;100936.09;4936458;29;20055;-64
2021/11/09 08:37:55;;;;;;;14.90;7.22;;;;;;;8.32;68.95;100939.47;4936023;29;20135;-63
2021/11/09 08:40:25;;;;;;;14.82;6.57;;;;;;;8.25;69.67;100940.06;4935567;29;20055;-63
2021/11/09 08:42:57;;;;;;;12.32;6.25;;;;;;;8.53;68.36;100940.06;4935961;29;20134;-63
2021/11/09 08:45:33;;;;;;;12.15;7.07;;;;;;;8.52;68.38;100930.69;4935971;29;20072;-63
2021/11/09 08:48:11;;;;;;;12.20;5.80;;;;;;;8.68;67.96;100948.13;4935888;29;20070;-63
2021/11/09 08:50:48;;;;;;;13.02;6.47;;;;;;;8.83;69.00;100956.13;4935922;29;20056;-63
2021/11/09 08:53:29;;;;;;;13.05;6.68;;;;;;;9.02;69.08;100958.34;4935915;29;20052;-63
2021/11/09 09:04:11;;;;;;;14.48;6.72;;;;;;;9.57;67.24;100965.72;4935832;29;20048;-63
2021/11/09 09:04:23;;;;;;;12.40;6.85;;;;;;;9.44;66.86;100959.44;4936162;29;20115;-63
2021/11/09 09:06:59;;;;;;;11.18;6.28;;;;;;;9.41;66.93;100979.75;4935700;29;20062;-63
2021/11/09 09:09:28;;;;;;;12.98;6.65;;;;;;;9.41;66.46;100983.97;4935768;29;20058;-63
2021/11/09 09:11:59;;;;;;;14.18;6.80;;;;;;;9.64;66.72;100982.00;4935650;29;20103;-63
2021/11/09 09:14:31;;;;;;;11.73;7.07;;;;;;;9.75;66.22;100981.41;4935751;29;20126;-63
2021/11/09 09:17:02;;;;;;;13.65;6.50;;;;;;;9.95;66.51;100984.44;4935555;29;20050;-63
2021/11/09 09:19:36;;;;;;;12.80;6.00;;;;;;;10.15;66.58;100977.25;4935669;29;20099;-63
2021/11/09 09:22:10;;;;;;;13.15;6.68;;;;;;;10.35;65.72;100976.84;4935595;29;20130;-63
2021/11/09 09:24:48;;;;;;;14.35;7.10;;;;;;;10.43;64.80;100975.31;4935571;29;20047;-64
2021/11/09 09:27:32;;;;;;;15.82;7.47;;;;;;;10.40;65.21;100980.34;4937540;29;20138;-63
2021/11/09 09:57:00;;;;;;;10.77;5.65;;;;;;;11.10;63.60;100992.81;4938665;29;20052;-64
2021/11/09 09:59:32;;;;;;;14.68;6.57;;;;;;;11.13;64.08;100992.00;4938475;29;20055;-64
2021/11/09 10:02:08;;;;;;;13.13;7.03;;;;;;;11.21;63.40;100998.09;4938473;29;20096;-64
2021/11/09 10:04:44;;;;;;;10.90;6.15;;;;;;;11.29;63.51;100994.00;4938680;29;20047;-64
2021/11/09 10:07:15;;;;;;;12.57;6.93;;;;;;;11.60;63.40;100991.09;4938309;29;20130;-63
2021/11/09 10:09:47;;;;;;;12.32;6.20;;;;;;;11.72;62.90;100991.34;4938366;29;20083;-63
2021/11/09 10:12:20;;;;;;;11.77;6.60;;;;;;;12.00;62.59;100987.47;4938314;29;20528;-64
2021/11/09 10:14:51;;;;;;;10.52;6.32;;;;;;;12.33;61.77;100993.09;4938553;29;20066;-63
2021/11/09 10:17:23;;;;;;;12.15;6.70;;;;;;;12.73;61.41;100994.44;4938028;29;20139;-64
2021/11/09 10:19:53;;;;;;;12.25;6.47;;;;;;;12.90;60.53;100992.06;4938427;29;20394;-64
2021/11/09 10:22:26;;;;;;;11.38;6.57;;;;;;;12.41;60.93;101001.72;4938528;29;20050;-64
2021/11/09 10:25:04;;;;;;;9.60;5.63;;;;;;;12.45;61.28;100997.50;4938348;29;20517;-64
2021/11/09 10:27:36;;;;;;;9.52;5.30;;;;;;;12.90;61.30;100992.91;4938387;29;20451;-63
2021/11/09 10:30:08;;;;;;;10.05;5.40;;;;;;;13.12;60.60;100984.66;4938318;29;20494;-63
2021/11/09 10:32:38;;;;;;;10.75;5.25;;;;;;;13.53;59.83;100997.84;4938332;29;20055;-64
2021/11/09 10:35:10;;;;;;;12.43;5.30;;;;;;;13.61;58.96;101001.31;4938517;29;20178;-64
2021/11/09 10:37:47;;;;;;;9.40;5.00;;;;;;;13.13;59.02;101000.88;4937596;29;20153;-64
2021/11/09 10:40:23;;;;;;;8.82;5.30;;;;;;;13.06;59.19;100999.94;4937805;29;20063;-64
2021/11/09 10:42:58;;;;;;;7.15;4.63;;;;;;;13.43;58.41;100996.91;4938166;29;20070;-63
2021/11/09 10:45:30;;;;;;;8.63;4.55;;;;;;;13.60;58.16;100994.50;4937467;29;20099;-63
2021/11/09 10:48:03;;;;;;;7.70;4.63;;;;;;;13.93;58.50;101001.56;4937675;29;20107;-63
2021/11/09 10:50:35;;;;;;;7.95;4.63;;;;;;;14.01;57.72;100999.91;4937402;29;20060;-64
2021/11/09 10:53:09;;;;;;;7.90;4.28;;;;;;;14.21;56.49;100994.88;4938115;29;20107;-64
2021/11/09 10:55:52;;;;;;;8.30;4.32;;;;;;;14.49;56.94;100989.94;4938954;29;20040;-65
2021/11/09 10:58:41;;;;;;;9.98;4.28;;;;;;;14.82;55.97;100993.47;4937733;29;20119;-64
2021/11/09 11:04:05;;;;;;;8.15;4.00;;;;;;;14.25;54.77;100981.22;4937933;29;20040;-63
2021/11/09 11:06:39;;;;;;;8.25;4.13;;;;;;;14.24;54.33;100984.63;4937307;29;20130;-63
2021/11/09 11:09:20;;;;;;;6.32;3.45;;;;;;;14.18;54.34;100990.59;4937548;29;20114;-63
2021/11/09 11:12:09;;;;;;;5.80;2.70;;;;;;;13.79;53.81;100990.34;4937479;29;20060;-63
2021/11/09 11:14:41;;;;;;;8.85;3.80;;;;;;;13.80;53.77;100992.91;4936946;29;20103;-64
2021/11/09 11:17:12;;;;;;;5.30;3.00;;;;;;;13.97;53.43;100990.47;4936853;29;20056;-63
2021/11/09 11:19:44;;;;;;;8.43;4.22;;;;;;;14.09;53.16;100990.53;4936391;29;20051;-64
2021/11/09 11:22:16;;;;;;;5.32;3.17;;;;;;;14.08;52.82;100992.25;4936953;29;20494;-63
2021/11/09 11:24:50;;;;;;;5.40;3.00;;;;;;;14.40;52.59;100995.03;4937129;29;20081;-63
2021/11/09 11:27:22;;;;;;;7.28;3.20;;;;;;;14.62;52.72;100996.84;4936779;29;20056;-63
2021/11/09 11:29:59;;;;;;;5.05;2.88;;;;;;;14.71;52.15;100999.44;4936954;29;20054;-63
2021/11/09 11:32:30;;;;;;;5.63;2.95;;;;;;;15.03;51.70;100996.97;4936779;29;20061;-63
2021/11/09 11:34:59;;;;;;;5.90;2.88;;;;;;;15.17;51.53;100997.00;4936814;29;20500;-63
2021/11/09 11:37:29;;;;;;;4.82;2.63;;;;;;;14.91;51.06;100993.50;4936781;29;20074;-63
2021/11/09 11:40:05;;;;;;;6.05;3.10;;;;;;;14.85;50.71;100996.06;4936620;29;20111;-63
2021/11/09 11:42:40;;;;;;;5.05;2.25;;;;;;;14.93;50.57;101002.06;4937128;29;20138;-63
2021/11/09 11:45:14;;;;;;;3.90;2.35;;;;;;;15.01;49.66;100997.81;4937011;29;20051;-63
2021/11/09 11:48:04;;;;;;;3.90;2.13;;;;;;;14.98;49.65;100997.81;4937004;29;20036;-63
2021/11/09 11:50:40;;;;;;;4.40;2.38;;;;;;;15.05;49.23;100996.97;4936198;29;20130;-63
2021/11/09 11:53:12;;;;;;;3.75;2.10;;;;;;;15.18;49.44;101003.88;4936436;29;20498;-64
2021/11/09 11:55:42;;;;;;;6.00;2.58;;;;;;;15.18;49.64;100991.88;4936611;29;20099;-64
2021/11/09 11:58:13;;;;;;;;;;;;;;;15.07;49.26;100982.44;4936607;29;20132;-63
2021/11/09 12:00:55;;;;;;;3.60;2.00;;;;;;;15.24;49.35;100996.16;4936377;29;19923;-63
2021/11/09 12:03:37;;;;;;;4.18;2.45;;;;;;;15.29;49.07;100985.00;4936648;29;20047;-63
2021/11/09 12:06:26;;;;;;;3.45;2.17;;;;;;;14.93;48.56;100989.22;4936535;29;20507;-63
2021/11/09 12:08:58;;;;;;;4.55;2.10;;;;;;;14.87;49.15;100995.22;4936627;29;20040;-63
2021/11/09 12:11:36;;;;;;;4.38;2.40;;;;;;;14.98;48.85;100998.66;4936454;29;20478;-64
2021/11/09 12:14:16;;;;;;;4.55;2.60;;;;;;;14.97;48.52;100998.69;4936443;29;20553;-63
2021/11/09 12:16:58;;;;;;;4.30;2.30;;;;;;;15.05;48.65;100986.69;4935883;29;20063;-64
2021/11/09 12:19:57;;;;;;;4.70;2.53;;;;;;;14.96;48.44;100994.38;4936154;29;20135;-63
2021/11/09 12:22:40;;;;;;;6.22;2.85;;;;;;;14.47;49.30;100991.63;4936482;29;20103;-63
2021/11/09 12:25:13;;;;;;;3.70;2.20;;;;;;;14.52;49.28;100989.94;4935899;29;20050;-63
2021/11/09 12:28:08;;;;;;;5.32;2.72;;;;;;;14.50;49.41;100994.22;4935921;29;20130;-63
2021/11/09 12:30:44;;;;;;;4.78;2.33;;;;;;;14.81;49.20;100984.91;4929020;29;20517;-64
2021/11/09 12:33:17;;;;;;;3.88;2.17;;;;;;;15.03;49.15;100990.97;4936008;29;20142;-63
2021/11/09 12:36:20;;;;;;;3.88;2.25;;;;;;;15.19;48.67;100992.69;4919271;29;20541;-63
2021/11/09 12:38:52;;;;;;;5.78;2.80;;;;;;;14.93;49.00;100981.50;4935978;29;20044;-63
2021/11/09 12:41:23;;;;;;;5.35;2.60;;;;;;;15.03;49.27;100990.97;4936321;29;20518;-64
2021/11/09 12:43:54;;;;;;;5.63;2.78;;;;;;;15.18;48.88;100993.56;4935977;29;20043;-64
2021/11/09 12:46:30;;;;;;;8.27;2.80;;;;;;;15.30;48.51;100985.88;4935918;29;20051;-64
2021/11/09 12:49:02;;;;;;;5.40;2.20;;;;;;;15.15;48.26;100991.00;4935972;29;20075;-63
2021/11/09 12:51:35;;;;;;;4.60;2.55;;;;;;;15.22;48.17;100992.72;4935904;29;20051;-63
2021/11/09 12:54:06;;;;;;;6.25;2.70;;;;;;;15.30;48.50;100985.88;4936238;29;20052;-63
2021/11/09 12:56:37;;;;;;;7.53;3.20;;;;;;;15.38;48.50;100979.00;4935835;29;20578;-63
2021/11/09 12:59:12;;;;;;;4.95;2.30;;;;;;;15.49;48.62;100985.06;4936073;29;20050;-63
2021/11/09 13:01:55;;;;;;;4.60;2.58;;;;;;;15.53;47.90;100988.47;4937367;29;20490;-63
2021/11/09 13:04:28;;;;;;;5.30;2.45;;;;;;;15.22;47.79;100987.56;4939828;29;20077;-63
2021/11/09 13:07:05;;;;;;;5.18;2.50;;;;;;;15.04;47.86;100987.56;4939571;29;20063;-64
2021/11/09 13:09:39;;;;;;;7.57;2.45;;;;;;;15.04;48.11;100992.69;4939489;29;20103;-64
2021/11/09 13:12:17;;;;;;;5.20;2.80;;;;;;;15.09;49.19;101006.44;4938992;29;20056;-63
2021/11/09 13:14:48;;;;;;;4.53;2.47;;;;;;;15.01;49.02;100997.81;4939370;29;20151;-63
2021/11/09 13:17:42;;;;;;;4.40;2.30;;;;;;;14.71;49.20;101004.59;4939601;29;20079;-62
2021/11/09 13:20:19;;;;;;;4.25;2.38;;;;;;;14.62;50.55;100999.41;4939307;29;20046;-63
2021/11/09 13:22:57;;;;;;;5.07;2.50;;;;;;;14.56;51.20;101009.69;4939523;29;20047;-62
2021/11/09 13:25:33;;;;;;;6.18;2.60;;;;;;;14.49;51.29;101007.91;4939313;29;20056;-63
2021/11/09 13:28:04;;;;;;;5.55;2.55;;;;;;;14.46;50.56;101018.19;4939404;29;20450;-65
2021/11/09 13:30:51;;;;;;;5.57;2.45;;;;;;;14.32;50.52;101007.00;4938865;29;20063;-63
2021/11/09 13:33:26;;;;;;;3.58;2.30;;;;;;;14.35;51.38;101009.56;4938848;29;20063;-63